Time;durP1;ratioP1;P1;durP2;ratioP2;P2;SDS_P1;SDS_P2;PMS_P1;PMS_P2;Temp;Humidity;BMP_temperature;BMP_pressure;BME280_temperature;BME280_humidity;BME280_pressure;Samples;Min_cycle;Max_cycle;Signal;HPM_P1;HPM_P2
2024/04/26 00:00:47;;;;;;;1.70;1.60;;;;;;;6.87;100.00;100645.78;5504439;26;20003;-69
2024/04/26 00:03:12;;;;;;;1.70;1.47;;;;;;;6.46;100.00;100579.00;5473266;26;20006;-69
2024/04/26 00:05:38;;;;;;;1.70;1.60;;;;;;;6.56;100.00;100599.31;5484095;26;20009;-71
2024/04/26 00:08:04;;;;;;;1.60;1.50;;;;;;;6.79;100.00;100635.91;5487498;26;20009;-69
2024/04/26 00:10:29;;;;;;;1.53;1.43;;;;;;;6.73;100.00;100628.56;5482677;26;20006;-70
2024/04/26 00:12:55;;;;;;;2.27;2.07;;;;;;;6.68;100.00;100628.13;5486958;26;20012;-69
2024/04/26 00:15:20;;;;;;;2.20;1.90;;;;;;;6.87;100.00;100672.25;5482892;26;20083;-69
2024/04/26 00:17:46;;;;;;;1.70;1.60;;;;;;;6.87;100.00;100666.97;5486981;26;20005;-68
2024/04/26 00:20:12;;;;;;;2.30;2.10;;;;;;;6.85;100.00;100655.69;5482732;26;20363;-71
2024/04/26 00:22:37;;;;;;;2.03;1.93;;;;;;;6.77;100.00;100661.69;5486411;26;20013;-69
2024/04/26 00:25:03;;;;;;;1.77;1.67;;;;;;;6.72;100.00;100663.09;5475234;26;19999;-69
2024/04/26 00:27:29;;;;;;;2.03;1.80;;;;;;;6.80;100.00;100677.28;5485900;26;20002;-69
2024/04/26 00:29:54;;;;;;;2.93;2.50;;;;;;;6.67;100.00;100662.69;5460535;26;20017;-69
2024/04/26 00:32:20;;;;;;;3.00;2.63;;;;;;;6.65;100.00;100661.97;5486771;26;20034;-69
2024/04/26 00:34:45;;;;;;;2.80;2.57;;;;;;;6.50;100.00;100646.53;5485000;26;20002;-69
2024/04/26 00:37:11;;;;;;;3.57;2.10;;;;;;;6.64;100.00;100676.16;5485902;26;20002;-70
2024/04/26 00:39:40;;;;;;;2.13;1.93;;;;;;;6.69;100.00;100695.97;5469863;26;20002;-69
2024/04/26 00:42:06;;;;;;;2.30;2.10;;;;;;;6.62;100.00;100694.00;5486296;26;20461;-69
2024/04/26 00:44:31;;;;;;;3.63;1.60;;;;;;;6.59;100.00;100700.41;5484439;26;20025;-69
2024/04/26 00:46:57;;;;;;;2.60;2.40;;;;;;;6.39;100.00;100691.63;5480235;26;20079;-69
2024/04/26 00:49:23;;;;;;;3.70;2.37;;;;;;;6.35;100.00;100695.50;5484634;26;20459;-71
2024/04/26 00:51:49;;;;;;;2.97;1.97;;;;;;;6.33;100.00;100692.16;5460589;26;20002;-70
2024/04/26 00:54:20;;;;;;;2.23;2.03;;;;;;;6.39;100.00;100702.22;5485880;26;20016;-69
2024/04/26 00:56:46;;;;;;;2.43;2.23;;;;;;;6.36;100.00;100689.28;5480459;26;20026;-69
2024/04/26 00:59:13;;;;;;;2.83;1.87;;;;;;;6.46;100.00;100710.44;5489281;26;20002;-69
2024/04/26 01:01:39;;;;;;;2.30;2.10;;;;;;;6.48;100.00;100724.34;5488359;26;20030;-70
2024/04/26 01:04:04;;;;;;;2.50;2.30;;;;;;;6.33;100.00;100699.25;5491368;26;20380;-68
2024/04/26 01:06:30;;;;;;;2.50;2.30;;;;;;;6.40;100.00;100716.28;5484744;26;20392;-70
2024/04/26 01:08:56;;;;;;;2.40;2.27;;;;;;;6.42;100.00;100714.34;5489714;26;20078;-69
2024/04/26 01:11:21;;;;;;;1.93;1.80;;;;;;;6.22;100.00;100692.28;5455611;26;20003;-69
2024/04/26 01:13:47;;;;;;;3.20;2.17;;;;;;;6.33;100.00;100709.84;5490132;26;20429;-71
2024/04/26 01:16:13;;;;;;;2.27;2.17;;;;;;;6.42;100.00;100725.75;5487155;26;20012;-70
2024/04/26 01:18:38;;;;;;;2.47;2.20;;;;;;;6.37;100.00;100725.31;5489781;26;20021;-68
2024/04/26 01:21:04;;;;;;;2.73;2.23;;;;;;;6.42;100.00;100716.97;5468034;26;20380;-68
2024/04/26 01:23:32;;;;;;;3.77;2.23;;;;;;;6.41;100.00;100721.44;5489281;26;20095;-70
2024/04/26 01:25:59;;;;;;;2.30;2.10;;;;;;;6.38;100.00;100705.84;5485684;26;20006;-69
2024/04/26 01:28:25;;;;;;;2.40;2.20;;;;;;;5.80;100.00;100613.16;5489223;26;20066;-70
2024/04/26 01:30:51;;;;;;;2.77;2.57;;;;;;;6.42;100.00;100706.41;5464149;26;20017;-69
2024/04/26 01:33:17;;;;;;;2.57;2.37;;;;;;;6.49;100.00;100723.38;5490684;26;20117;-68
2024/04/26 01:35:46;;;;;;;1.97;1.87;;;;;;;6.41;100.00;100710.84;5483471;26;20002;-69
2024/04/26 01:38:12;;;;;;;2.60;2.40;;;;;;;6.45;100.00;100720.19;5489782;26;20009;-70
2024/04/26 01:40:38;;;;;;;2.73;2.50;;;;;;;6.37;100.00;100712.09;5483359;26;20011;-69
2024/04/26 01:43:04;;;;;;;2.60;2.40;;;;;;;6.46;100.00;100721.84;5473432;26;20018;-71
2024/04/26 01:45:30;;;;;;;2.60;2.40;;;;;;;6.37;100.00;100713.91;5464032;26;20078;-71
2024/04/26 01:47:55;;;;;;;2.60;2.40;;;;;;;6.43;100.00;100732.72;5490243;26;20489;-69
2024/04/26 01:50:21;;;;;;;2.47;2.27;;;;;;;6.45;100.00;100730.75;5488855;26;20002;-68
2024/04/26 01:52:48;;;;;;;3.53;2.33;;;;;;;6.51;100.00;100735.50;5474913;26;20357;-69
2024/04/26 01:55:14;;;;;;;2.50;2.30;;;;;;;6.45;100.00;100735.22;5487807;26;20011;-69
2024/04/26 01:57:40;;;;;;;2.47;2.27;;;;;;;6.49;100.00;100732.16;5488004;26;20018;-69
2024/04/26 02:00:07;;;;;;;2.50;2.30;;;;;;;6.35;100.00;100716.66;5488522;26;20002;-73
2024/04/26 02:02:33;;;;;;;2.67;2.47;;;;;;;6.34;100.00;100707.06;5485398;26;20002;-73
2024/04/26 02:04:59;;;;;;;2.60;2.20;;;;;;;6.53;100.00;100733.56;5488188;26;20388;-71
2024/04/26 02:07:29;;;;;;;3.37;2.40;;;;;;;6.58;100.00;100729.66;5454342;26;20006;-70
2024/04/26 02:09:56;;;;;;;3.43;2.43;;;;;;;6.54;100.00;100726.44;5487202;26;20013;-69
2024/04/26 02:12:21;;;;;;;3.00;2.80;;;;;;;6.31;100.00;100680.88;5455673;26;19998;-70
2024/04/26 02:14:47;;;;;;;2.40;2.20;;;;;;;6.50;100.00;100720.59;5489541;26;20006;-70
2024/04/26 02:17:13;;;;;;;2.60;2.40;;;;;;;6.59;100.00;100734.81;5487161;26;20012;-69
2024/04/26 02:19:39;;;;;;;3.30;3.00;;;;;;;6.51;100.00;100726.72;5488117;26;20928;-68
2024/04/26 02:22:05;;;;;;;3.00;2.80;;;;;;;6.52;100.00;100731.88;5449072;26;20354;-70
2024/04/26 02:24:30;;;;;;;3.90;2.40;;;;;;;6.51;100.00;100732.84;5482464;26;20006;-69
2024/04/26 02:26:56;;;;;;;2.97;2.77;;;;;;;6.53;100.00;100728.25;5484649;26;20075;-70
2024/04/26 02:29:22;;;;;;;2.67;2.47;;;;;;;6.60;100.00;100735.66;5487934;26;19998;-71
2024/04/26 02:31:47;;;;;;;3.03;2.77;;;;;;;6.45;100.00;100714.88;5480904;26;20456;-69
2024/04/26 02:34:13;;;;;;;3.10;2.80;;;;;;;6.66;100.00;100753.63;5460459;26;20010;-71
2024/04/26 02:36:40;;;;;;;2.60;2.40;;;;;;;6.58;100.00;100737.59;5485928;26;19998;-70
2024/04/26 02:39:07;;;;;;;2.90;2.70;;;;;;;6.22;100.00;100681.72;5486984;26;20051;-69
2024/04/26 02:41:33;;;;;;;2.77;2.57;;;;;;;6.54;100.00;100734.38;5480026;26;20006;-68
2024/04/26 02:43:58;;;;;;;2.30;2.20;;;;;;;6.57;100.00;100736.75;5470577;26;19994;-68
2024/04/26 02:46:24;;;;;;;2.30;2.10;;;;;;;6.63;100.00;100756.53;5474767;26;20422;-71
2024/04/26 02:48:49;;;;;;;2.50;2.30;;;;;;;6.62;100.00;100758.34;5487486;26;20453;-69
2024/04/26 02:51:15;;;;;;;2.20;2.00;;;;;;;6.53;100.00;100749.44;5470276;26;20017;-68
2024/04/26 02:53:40;;;;;;;2.20;2.00;;;;;;;6.60;100.00;100770.88;5488882;26;20006;-72
2024/04/26 02:56:07;;;;;;;2.30;2.10;;;;;;;6.52;100.00;100757.50;5487838;26;20038;-69
2024/04/26 02:58:33;;;;;;;3.80;2.20;;;;;;;6.64;100.00;100776.72;5479855;26;20070;-69
2024/04/26 03:00:59;;;;;;;2.13;1.97;;;;;;;6.69;100.00;100785.13;5487912;26;20019;-68
2024/04/26 03:03:26;;;;;;;2.40;2.20;;;;;;;6.34;100.00;100717.63;5485002;26;19994;-69
2024/04/26 03:05:52;;;;;;;1.77;1.67;;;;;;;6.46;100.00;100764.19;5488954;26;20042;-69
2024/04/26 03:08:18;;;;;;;2.40;2.20;;;;;;;6.67;100.00;100800.31;5493218;26;20002;-70
2024/04/26 03:10:43;;;;;;;2.23;2.03;;;;;;;6.70;100.00;100806.16;5498785;26;19999;-69
2024/04/26 03:13:09;;;;;;;2.10;2.00;;;;;;;6.73;100.00;100807.69;5495332;26;20002;-68
2024/04/26 03:15:34;;;;;;;2.10;1.90;;;;;;;6.64;100.00;100792.59;5489456;26;20002;-69
2024/04/26 03:18:00;;;;;;;2.47;2.27;;;;;;;6.65;100.00;100794.28;5488893;26;19998;-70
2024/04/26 03:20:28;;;;;;;1.90;1.80;;;;;;;6.69;100.00;100787.78;5489272;26;19998;-69
2024/04/26 03:22:55;;;;;;;2.20;2.10;;;;;;;6.73;100.00;100791.81;5489108;26;20017;-71
2024/04/26 03:25:21;;;;;;;1.90;1.80;;;;;;;6.81;100.00;100799.91;5487932;26;20002;-70
2024/04/26 03:27:46;;;;;;;1.93;1.80;;;;;;;6.78;100.00;100801.00;5482415;26;20014;-69
2024/04/26 03:30:12;;;;;;;1.90;1.80;;;;;;;6.75;100.00;100811.88;5488685;26;20001;-72
2024/04/26 03:32:37;;;;;;;2.40;2.20;;;;;;;6.66;100.00;100791.53;5487550;26;20017;-68
2024/04/26 03:35:03;;;;;;;1.93;1.73;;;;;;;6.75;100.00;100805.75;5488649;26;20004;-70
2024/04/26 03:37:31;;;;;;;2.40;2.07;;;;;;;6.91;100.00;100821.91;5472211;26;20479;-70
2024/04/26 03:39:57;;;;;;;3.07;2.13;;;;;;;7.01;100.00;100837.81;5442401;26;20187;-68
2024/04/26 03:42:23;;;;;;;2.90;2.40;;;;;;;6.93;100.00;100827.06;5488764;26;20465;-69
2024/04/26 03:44:48;;;;;;;2.13;2.03;;;;;;;6.97;100.00;100836.44;5488610;26;19998;-70
2024/04/26 03:47:14;;;;;;;2.27;2.07;;;;;;;7.00;100.00;100841.44;5484729;26;20002;-70
2024/04/26 03:49:39;;;;;;;2.40;2.20;;;;;;;6.92;100.00;100844.75;5475027;26;20357;-71
2024/04/26 03:52:04;;;;;;;2.10;1.90;;;;;;;6.98;100.00;100865.41;5488020;26;20074;-67
2024/04/26 03:54:31;;;;;;;3.90;2.30;;;;;;;6.91;100.00;100851.03;5487267;26;20365;-69
2024/04/26 03:56:58;;;;;;;2.13;2.03;;;;;;;6.98;100.00;100865.41;5486238;26;20013;-69
2024/04/26 03:59:24;;;;;;;1.70;1.60;;;;;;;6.90;100.00;100857.31;5486722;26;20002;-69
2024/04/26 04:01:50;;;;;;;1.70;1.60;;;;;;;6.83;100.00;100856.19;5487127;26;20006;-72
2024/04/26 04:04:16;;;;;;;2.10;1.90;;;;;;;6.92;100.00;100855.34;5473136;26;20374;-71
2024/04/26 04:06:41;;;;;;;2.20;2.00;;;;;;;6.88;100.00;100838.06;5437106;26;19999;-69
2024/04/26 04:09:07;;;;;;;1.80;1.70;;;;;;;7.00;100.00;100857.34;5487378;26;20457;-68
2024/04/26 04:11:33;;;;;;;2.83;2.63;;;;;;;6.96;100.00;100856.78;5487676;26;19995;-70
2024/04/26 04:13:58;;;;;;;2.83;2.30;;;;;;;7.01;100.00;100857.19;5486579;26;20017;-70
2024/04/26 04:16:24;;;;;;;2.00;1.63;;;;;;;6.95;100.00;100855.09;5486845;26;20363;-70
2024/04/26 04:18:49;;;;;;;2.93;1.97;;;;;;;7.03;100.00;100857.91;5469740;26;20078;-71
2024/04/26 04:21:16;;;;;;;1.90;1.73;;;;;;;7.00;100.00;100858.19;5486797;26;20006;-70
2024/04/26 04:23:41;;;;;;;2.30;2.13;;;;;;;7.13;100.00;100874.63;5485535;26;20079;-70
2024/04/26 04:26:07;;;;;;;2.00;1.90;;;;;;;7.10;100.00;100874.06;5459457;26;20441;-68
2024/04/26 04:28:32;;;;;;;2.10;1.90;;;;;;;7.11;100.00;100881.03;5485629;26;20006;-68
2024/04/26 04:30:58;;;;;;;1.77;1.67;;;;;;;7.03;100.00;100851.75;5462742;26;19994;-69
2024/04/26 04:33:23;;;;;;;2.20;1.80;;;;;;;6.98;100.00;100852.19;5465353;26;20006;-70
2024/04/26 04:35:51;;;;;;;1.80;1.70;;;;;;;6.97;100.00;100868.22;5486126;26;20009;-67
2024/04/26 04:38:18;;;;;;;2.20;2.00;;;;;;;6.97;100.00;100884.94;5442245;26;20006;-71
2024/04/26 04:40:43;;;;;;;3.37;1.93;;;;;;;7.00;100.00;100882.00;5467724;26;20126;-70
2024/04/26 04:43:10;;;;;;;3.23;2.43;;;;;;;7.05;100.00;100881.59;5440317;26;20165;-70
2024/04/26 04:45:36;;;;;;;3.77;2.70;;;;;;;7.06;100.00;100877.97;5482626;26;20500;-73
2024/04/26 04:48:02;;;;;;;4.93;2.97;;;;;;;7.17;100.00;100885.78;5433396;26;20073;-74
2024/04/26 04:50:27;;;;;;;3.97;2.40;;;;;;;7.23;100.00;100879.09;5484485;26;19998;-73
2024/04/26 04:52:54;;;;;;;4.20;3.00;;;;;;;7.27;100.00;100872.56;5483912;26;20491;-71
2024/04/26 04:55:19;;;;;;;4.40;3.50;;;;;;;7.08;100.00;100833.66;5481160;26;20445;-74
2024/04/26 04:57:45;;;;;;;6.20;3.53;;;;;;;7.42;100.00;100884.41;5486382;26;20121;-71
2024/04/26 05:00:10;;;;;;;3.33;2.30;;;;;;;7.40;100.00;100878.41;5487674;26;20014;-73
2024/04/26 05:02:36;;;;;;;4.93;3.07;;;;;;;6.84;100.00;100784.56;5449759;26;20017;-73
2024/04/26 05:05:02;;;;;;;3.53;2.17;;;;;;;7.46;100.00;100880.50;5475137;26;20529;-70
2024/04/26 05:07:27;;;;;;;8.57;3.07;;;;;;;7.50;100.00;100876.59;5457390;26;20361;-67
2024/04/26 05:09:53;;;;;;;2.40;2.20;;;;;;;7.36;100.00;100839.94;5485219;26;20074;-67
2024/04/26 05:12:18;;;;;;;4.60;2.50;;;;;;;7.74;100.00;100895.56;5443542;26;20002;-67
2024/04/26 05:14:44;;;;;;;3.23;2.53;;;;;;;7.72;100.00;100886.91;5483431;26;20115;-67
2024/04/26 05:17:10;;;;;;;4.63;2.40;;;;;;;7.71;100.00;100881.75;5480528;26;19998;-68
2024/04/26 05:19:35;;;;;;;3.37;2.70;;;;;;;7.64;100.00;100900.03;5478720;26;20014;-67
2024/04/26 05:22:01;;;;;;;3.00;2.57;;;;;;;7.63;100.00;100906.31;5478672;26;20002;-69
2024/04/26 05:24:27;;;;;;;4.23;2.60;;;;;;;7.58;100.00;100900.59;5482548;26;19998;-69
2024/04/26 05:26:53;;;;;;;3.00;2.70;;;;;;;7.61;100.00;100902.97;5472870;26;20044;-68
2024/04/26 05:29:19;;;;;;;6.23;2.97;;;;;;;7.63;100.00;100892.22;5450516;26;20002;-67
2024/04/26 05:31:45;;;;;;;4.40;2.57;;;;;;;7.68;100.00;100912.03;5484401;26;20006;-66
2024/04/26 05:34:10;;;;;;;3.23;2.63;;;;;;;7.54;100.00;100901.03;5482648;26;20009;-67
2024/04/26 05:36:36;;;;;;;3.50;2.77;;;;;;;7.41;100.00;100894.16;5484306;26;20002;-68
2024/04/26 05:39:02;;;;;;;2.93;2.20;;;;;;;7.42;100.00;100905.59;5482348;26;20042;-68
2024/04/26 05:41:28;;;;;;;2.30;2.10;;;;;;;7.28;100.00;100887.47;5448886;26;20009;-68
2024/04/26 05:43:53;;;;;;;3.10;2.23;;;;;;;7.59;100.00;100930.59;5452419;26;20002;-70
2024/04/26 05:46:19;;;;;;;2.47;2.27;;;;;;;7.68;100.00;100917.34;5487908;26;19998;-67
2024/04/26 05:48:44;;;;;;;4.87;2.23;;;;;;;7.74;100.00;100916.75;5459735;26;20017;-68
2024/04/26 05:51:13;;;;;;;3.23;2.00;;;;;;;7.89;100.00;100930.44;5483744;26;20503;-68
2024/04/26 05:53:42;;;;;;;4.05;2.45;;;;;;;7.78;100.00;100949.97;5488159;26;20465;-70
2024/04/26 05:56:07;;;;;;;;;;;;;;;7.68;100.00;100950.94;5458358;26;20128;-70
2024/04/26 05:58:34;;;;;;;2.97;2.00;;;;;;;7.39;100.00;100929.72;5467317;26;19924;-69
2024/04/26 06:01:00;;;;;;;7.47;2.47;;;;;;;7.53;100.00;100974.41;5488937;26;20075;-69
2024/04/26 06:03:25;;;;;;;2.77;2.20;;;;;;;7.43;100.00;100976.19;5489364;26;20437;-66
2024/04/26 06:05:52;;;;;;;3.10;2.50;;;;;;;7.20;100.00;100941.13;5488426;26;20002;-66
2024/04/26 06:08:18;;;;;;;2.40;1.77;;;;;;;7.35;100.00;100968.09;5488875;26;20014;-66
2024/04/26 06:10:43;;;;;;;2.37;2.03;;;;;;;7.46;100.00;100986.50;5488513;26;20074;-66
2024/04/26 06:13:09;;;;;;;5.40;2.40;;;;;;;7.41;100.00;100980.78;5476153;26;20017;-68
2024/04/26 06:15:36;;;;;;;2.40;1.87;;;;;;;7.36;100.00;100975.88;5489379;26;20008;-67
2024/04/26 06:18:02;;;;;;;3.33;2.03;;;;;;;7.31;100.00;100982.56;5488327;26;20342;-67
2024/04/26 06:20:30;;;;;;;2.00;1.80;;;;;;;7.34;100.00;100990.25;5488075;26;20502;-69
2024/04/26 06:22:56;;;;;;;2.45;1.85;;;;;;;7.38;100.00;100986.34;5488462;26;20006;-68
2024/04/26 06:25:22;;;;;;;2.17;1.80;;;;;;;7.29;100.00;100984.53;5488528;26;20013;-71
2024/04/26 06:27:47;;;;;;;2.10;1.70;;;;;;;7.25;100.00;100980.47;5488295;26;19998;-70
2024/04/26 06:30:12;;;;;;;2.23;2.10;;;;;;;7.34;100.00;100999.03;5487837;26;20016;-69
2024/04/26 06:32:38;;;;;;;2.50;2.30;;;;;;;7.38;100.00;100999.59;5487581;26;20002;-67
2024/04/26 06:35:04;;;;;;;2.20;1.70;;;;;;;7.40;100.00;100987.06;5488066;26;20016;-68
2024/04/26 06:37:32;;;;;;;2.90;2.13;;;;;;;7.45;100.00;100979.53;5472280;26;19998;-67
2024/04/26 06:39:57;;;;;;;3.65;2.47;;;;;;;7.72;100.00;101003.56;5470328;26;20006;-70
2024/04/26 06:42:23;;;;;;;2.57;2.07;;;;;;;7.67;100.00;100989.88;5483037;26;20009;-68
2024/04/26 06:44:49;;;;;;;2.97;1.67;;;;;;;7.82;100.00;101013.34;5477610;26;20006;-69
2024/04/26 06:47:15;;;;;;;1.73;1.63;;;;;;;7.83;100.00;101025.63;5481916;26;20034;-70
2024/04/26 06:49:41;;;;;;;4.60;1.90;;;;;;;7.81;100.00;101028.44;5485231;26;20002;-68
2024/04/26 06:52:06;;;;;;;3.20;1.60;;;;;;;7.61;100.00;101016.94;5477591;26;20006;-67
2024/04/26 06:54:33;;;;;;;3.73;1.93;;;;;;;7.63;100.00;101019.47;5456488;26;20006;-67
2024/04/26 06:56:59;;;;;;;1.70;1.60;;;;;;;7.74;100.00;101028.13;5481323;26;20003;-70
2024/04/26 06:59:27;;;;;;;2.43;2.20;;;;;;;7.73;100.00;101034.38;5478317;26;20368;-68
2024/04/26 07:01:55;;;;;;;4.35;2.90;;;;;;;7.81;100.00;101051.44;5482083;26;19998;-67
2024/04/26 07:04:20;;;;;;;3.73;2.87;;;;;;;7.60;100.00;101006.47;5480089;26;20024;-69
2024/04/26 07:06:46;;;;;;;3.67;2.00;;;;;;;7.96;100.00;101058.00;5477263;26;20384;-67
2024/04/26 07:09:11;;;;;;;3.13;2.17;;;;;;;8.03;100.00;101040.56;5475897;26;20006;-72
2024/04/26 07:11:36;;;;;;;3.20;1.93;;;;;;;8.30;98.88;101029.25;5479807;26;20480;-66
2024/04/26 07:14:04;;;;;;;2.50;2.30;;;;;;;8.94;97.16;101053.28;5480930;26;20010;-69
2024/04/26 07:16:29;;;;;;;5.37;1.53;;;;;;;9.23;93.77;101060.31;5480864;26;20656;-68
2024/04/26 07:18:55;;;;;;;2.63;2.13;;;;;;;9.57;92.63;101069.41;5481527;26;20006;-71
2024/04/26 07:21:20;;;;;;;3.27;2.37;;;;;;;9.55;87.28;101059.91;5481936;26;20441;-69
2024/04/26 07:23:46;;;;;;;4.47;2.60;;;;;;;9.72;87.95;101079.53;5481503;26;20078;-69
2024/04/26 07:26:12;;;;;;;2.83;2.10;;;;;;;9.74;86.78;101066.91;5484609;26;20006;-69
2024/04/26 07:28:37;;;;;;;4.23;2.07;;;;;;;9.59;85.51;101062.13;5477177;26;20526;-69
2024/04/26 07:31:03;;;;;;;3.50;2.73;;;;;;;9.83;85.52;101084.63;5454616;26;20010;-70
2024/04/26 07:33:29;;;;;;;4.03;2.17;;;;;;;10.05;85.44;101084.19;5461480;26;20017;-70
2024/04/26 07:35:54;;;;;;;2.30;2.10;;;;;;;10.28;84.56;101073.13;5486935;26;20006;-71
2024/04/26 07:38:20;;;;;;;4.37;1.83;;;;;;;10.43;80.43;101082.28;5487105;26;20074;-71
2024/04/26 07:40:46;;;;;;;1.70;1.60;;;;;;;10.18;80.46;101046.59;5487376;26;20006;-70
2024/04/26 07:43:16;;;;;;;2.80;2.00;;;;;;;10.43;79.30;101077.78;5487204;26;20013;-72
2024/04/26 07:45:42;;;;;;;6.43;1.83;;;;;;;10.49;79.98;101084.31;5487379;26;20013;-71
2024/04/26 07:48:07;;;;;;;3.80;1.60;;;;;;;10.42;78.89;101081.44;5487323;26;20006;-71
2024/04/26 07:50:33;;;;;;;2.87;2.17;;;;;;;10.17;79.77;101076.84;5478530;26;20022;-70
2024/04/26 07:52:59;;;;;;;4.30;1.87;;;;;;;10.00;80.14;101049.22;5486767;26;20453;-69
2024/04/26 07:55:25;;;;;;;2.13;1.93;;;;;;;10.07;80.11;101071.59;5487982;26;20034;-69
2024/04/26 07:57:51;;;;;;;2.10;1.90;;;;;;;9.70;81.58;101065.56;5486856;26;20002;-71
2024/04/26 08:00:16;;;;;;;2.90;2.30;;;;;;;9.61;83.06;101069.94;5488108;26;20429;-72
2024/04/26 08:02:44;;;;;;;2.90;2.10;;;;;;;9.60;84.37;101095.69;5486705;26;20474;-71
2024/04/26 08:05:10;;;;;;;4.00;2.10;;;;;;;9.59;84.96;101096.69;5487554;26;20032;-71
2024/04/26 08:07:36;;;;;;;3.70;2.40;;;;;;;9.19;84.68;101040.34;5488219;26;20342;-70
2024/04/26 08:10:02;;;;;;;5.03;3.10;;;;;;;9.41;85.52;101085.16;5487149;26;20002;-71
2024/04/26 08:12:29;;;;;;;6.67;2.87;;;;;;;9.39;85.96;101080.97;5487337;26;20016;-70
2024/04/26 08:14:54;;;;;;;4.40;2.53;;;;;;;9.49;84.82;101087.91;5487406;26;20434;-73
2024/04/26 08:17:20;;;;;;;3.57;2.47;;;;;;;9.48;84.98;101086.22;5486686;26;20006;-72
2024/04/26 08:19:45;;;;;;;2.73;2.20;;;;;;;9.49;84.86;101071.94;5487096;26;20009;-73
2024/04/26 08:22:11;;;;;;;3.80;2.47;;;;;;;9.70;83.92;101100.97;5485228;26;20002;-69
2024/04/26 08:24:36;;;;;;;4.90;1.87;;;;;;;9.59;84.53;101075.41;5486483;26;19998;-71
2024/04/26 08:27:02;;;;;;;2.83;1.77;;;;;;;9.57;84.00;101090.69;5460753;26;20057;-71
2024/04/26 08:29:27;;;;;;;3.63;2.50;;;;;;;9.50;83.94;101086.09;5486765;26;19998;-68
2024/04/26 08:31:55;;;;;;;3.63;2.27;;;;;;;9.35;84.90;101091.06;5488580;26;20009;-68
2024/04/26 08:34:24;;;;;;;3.40;2.10;;;;;;;9.38;85.69;101109.38;5486639;26;20018;-72
2024/04/26 08:36:50;;;;;;;3.50;2.03;;;;;;;9.19;85.92;101093.50;5484589;26;20034;-70
2024/04/26 08:39:20;;;;;;;3.10;2.17;;;;;;;9.16;86.40;101099.09;5485041;26;20026;-71
2024/04/26 08:41:46;;;;;;;2.77;1.50;;;;;;;9.16;85.55;101096.44;5486434;26;20006;-69
2024/04/26 08:44:13;;;;;;;3.87;1.70;;;;;;;8.93;85.40;101080.84;5486097;26;20002;-70
2024/04/26 08:46:39;;;;;;;1.70;1.60;;;;;;;9.07;85.38;101110.59;5445573;26;20087;-68
2024/04/26 08:49:06;;;;;;;3.93;1.77;;;;;;;9.07;86.82;101113.25;5486763;26;20021;-70
2024/04/26 08:51:33;;;;;;;5.90;2.30;;;;;;;8.94;87.55;101090.50;5479125;26;20002;-69
2024/04/26 08:53:59;;;;;;;12.33;2.50;;;;;;;8.99;87.72;101112.16;5485841;26;19998;-68
2024/04/26 08:56:28;;;;;;;3.10;2.07;;;;;;;8.97;87.84;101106.16;5486184;26;20536;-69
2024/04/26 08:58:55;;;;;;;3.23;1.43;;;;;;;8.77;87.67;101083.28;5486549;26;20452;-69
2024/04/26 09:01:20;;;;;;;1.87;1.60;;;;;;;8.89;87.54;101113.16;5485698;26;20006;-69
2024/04/26 09:03:49;;;;;;;2.50;2.30;;;;;;;8.92;87.69;101116.34;5484591;26;20046;-69
2024/04/26 09:06:16;;;;;;;4.05;2.28;;;;;;;8.94;89.03;101106.44;5485143;26;20002;-69
2024/04/26 09:08:42;;;;;;;5.23;2.10;;;;;;;9.06;88.20;101093.81;5438757;26;20022;-69
2024/04/26 09:11:16;;;;;;;2.77;1.97;;;;;;;9.03;87.72;101061.41;5479600;26;20002;-68
2024/04/26 09:13:42;;;;;;;3.20;1.70;;;;;;;9.31;86.46;101095.84;5463379;26;20009;-70
2024/04/26 09:16:07;;;;;;;2.53;1.83;;;;;;;9.40;85.30;101107.41;5486762;26;20006;-67
2024/04/26 09:18:33;;;;;;;4.80;2.20;;;;;;;9.57;85.14;101106.63;5484024;26;20009;-68
2024/04/26 09:21:02;;;;;;;2.77;2.00;;;;;;;9.65;83.88;101108.56;5486452;26;20006;-70
2024/04/26 09:23:27;;;;;;;5.63;1.97;;;;;;;9.57;83.75;101100.47;5487347;26;20361;-67
2024/04/26 09:26:03;;;;;;;30.77;2.80;;;;;;;9.60;84.21;101122.28;5469575;26;20006;-69
2024/04/26 09:28:29;;;;;;;8.40;2.53;;;;;;;9.48;84.14;101119.97;5484022;26;20478;-70
2024/04/26 09:30:55;;;;;;;2.57;2.37;;;;;;;9.32;84.44;101102.81;5479053;26;19998;-69
2024/04/26 09:33:20;;;;;;;5.10;2.27;;;;;;;9.32;85.29;101096.69;5487585;26;20002;-68
2024/04/26 09:35:47;;;;;;;6.73;2.27;;;;;;;9.15;84.80;101084.13;5480862;26;20010;-68
2024/04/26 09:38:20;;;;;;;2.63;2.30;;;;;;;9.12;85.59;101101.22;5487951;26;19998;-68
2024/04/26 09:40:52;;;;;;;5.97;2.40;;;;;;;8.82;87.02;101099.63;5488415;26;20002;-69
2024/04/26 09:43:18;;;;;;;9.73;2.40;;;;;;;8.73;87.64;101099.66;5487926;26;20002;-68
2024/04/26 09:45:49;;;;;;;4.13;2.30;;;;;;;8.72;88.72;101097.97;5474744;26;20349;-70
2024/04/26 09:48:15;;;;;;;2.87;2.17;;;;;;;8.80;88.76;101100.75;5488038;26;20002;-67
2024/04/26 09:50:41;;;;;;;4.43;1.87;;;;;;;8.82;86.25;101104.94;5478851;26;20462;-68
2024/04/26 09:53:08;;;;;;;5.70;2.13;;;;;;;8.97;86.61;101132.72;5489120;26;19998;-69
2024/04/26 09:55:34;;;;;;;5.13;2.30;;;;;;;9.10;86.21;101115.63;5474249;26;20022;-68
2024/04/26 09:58:00;;;;;;;1.67;1.57;;;;;;;9.25;84.04;101114.16;5488462;26;20068;-68
2024/04/26 10:00:29;;;;;;;4.93;1.70;;;;;;;9.44;83.51;101126.56;5488903;26;20147;-68
2024/04/26 10:03:00;;;;;;;3.67;2.17;;;;;;;9.53;83.05;101113.22;5488207;26;20469;-67
2024/04/26 10:05:27;;;;;;;4.00;2.20;;;;;;;9.55;82.70;101107.78;5488408;26;20006;-69
2024/04/26 10:07:59;;;;;;;4.97;1.90;;;;;;;9.71;82.44;101123.06;5488523;26;20046;-69
2024/04/26 10:10:26;;;;;;;3.53;1.93;;;;;;;9.57;82.71;101103.16;5488744;26;20488;-69
2024/04/26 10:13:05;;;;;;;4.17;1.67;;;;;;;9.56;84.26;101099.66;5473160;26;20013;-67
2024/04/26 10:15:35;;;;;;;3.43;1.83;;;;;;;9.77;82.90;101130.44;5489006;26;20002;-69
2024/04/26 10:18:02;;;;;;;2.90;2.17;;;;;;;9.71;82.95;101117.75;5488378;26;20002;-68
2024/04/26 10:20:27;;;;;;;2.77;2.00;;;;;;;9.80;82.82;101104.38;5488285;26;19998;-68
2024/04/26 10:22:59;;;;;;;2.33;2.00;;;;;;;9.98;81.59;101131.03;5465760;26;20349;-67
2024/04/26 10:25:24;;;;;;;3.27;1.43;;;;;;;9.98;79.86;101119.56;5486124;26;20005;-67
2024/04/26 10:27:50;;;;;;;3.10;1.47;;;;;;;10.22;79.80;101117.19;5487828;26;20509;-69
2024/04/26 10:30:16;;;;;;;4.03;2.00;;;;;;;10.67;78.69;101149.03;5487066;26;20469;-68
2024/04/26 10:32:42;;;;;;;4.40;1.77;;;;;;;10.67;74.56;101121.56;5488211;26;20002;-68
2024/04/26 10:35:20;;;;;;;4.80;1.60;;;;;;;10.82;75.20;101138.69;5463145;26;20010;-68
2024/04/26 10:37:58;;;;;;;4.77;2.27;;;;;;;10.89;74.39;101137.06;5487597;26;20009;-68
2024/04/26 10:40:24;;;;;;;;;;;;;;;11.12;75.16;101148.06;5488585;26;20009;-68
2024/04/26 10:42:50;;;;;;;3.20;1.80;;;;;;;10.75;72.87;101132.31;5487641;26;19924;-68
2024/04/26 10:45:15;;;;;;;9.33;2.23;;;;;;;10.50;75.15;101142.75;5469401;26;20022;-70
2024/04/26 10:47:41;;;;;;;4.23;1.90;;;;;;;10.44;75.79;101155.84;5487666;26;20026;-68
2024/04/26 10:50:06;;;;;;;8.30;1.63;;;;;;;9.94;78.72;101145.63;5488381;26;20006;-68
2024/04/26 10:52:32;;;;;;;3.67;1.53;;;;;;;9.73;81.03;101163.66;5487806;26;20464;-68
2024/04/26 10:54:58;;;;;;;3.00;1.57;;;;;;;9.42;83.43;101137.34;5468902;26;20038;-68
2024/04/26 10:57:24;;;;;;;2.17;1.60;;;;;;;9.34;85.08;101152.34;5488147;26;20026;-67
2024/04/26 11:00:00;;;;;;;4.20;1.60;;;;;;;9.31;85.91;101161.44;5488621;26;19998;-68
2024/04/26 11:02:27;;;;;;;2.93;1.70;;;;;;;9.11;86.63;101135.91;5488452;26;20024;-67
2024/04/26 11:05:06;;;;;;;2.20;1.67;;;;;;;9.04;87.42;101138.31;5471836;26;20002;-67
2024/04/26 11:07:32;;;;;;;2.90;1.27;;;;;;;9.09;88.05;101135.22;5473369;26;20006;-70
2024/04/26 11:09:58;;;;;;;1.50;1.40;;;;;;;9.18;87.89;101142.31;5486096;26;20014;-68
2024/04/26 11:12:24;;;;;;;8.50;1.40;;;;;;;9.43;88.60;101157.63;5416242;26;20006;-71
2024/04/26 11:14:49;;;;;;;4.03;1.47;;;;;;;9.82;87.03;101162.75;5487302;26;20002;-68
2024/04/26 11:17:15;;;;;;;3.30;2.00;;;;;;;10.24;85.03;101155.97;5470130;26;20423;-69
2024/04/26 11:19:42;;;;;;;3.43;1.93;;;;;;;10.82;82.73;101163.50;5482096;26;20472;-71
2024/04/26 11:22:09;;;;;;;4.25;2.10;;;;;;;11.22;79.08;101154.09;5464127;26;20017;-70
2024/04/26 11:24:35;;;;;;;2.40;1.83;;;;;;;11.35;77.03;101149.19;5479779;26;20012;-68